Observation data for Reese Center on 02/15/2017      Previous  Date  Next       Current Mesonet Observations  Soil Data  Daily Summary Page  Observations in Plain Language
KREE 150600Z 30012KT 00/M02 A3019 RMK A01 T00041016  RH  087%=      5-min Rain = 0
KREE 150605Z 30011KT 00/M02 A3019 RMK A01 T00021017  RH  088%=      5-min Rain = 0
KREE 150610Z 30012KT 00/M02 A3019 RMK A01 T00021018  RH  087%=      5-min Rain = 0
KREE 150615Z 30011KT 00/M02 A3019 RMK A01 T00031018  RH  087%=      5-min Rain = 0
KREE 150620Z 30011KT 00/M02 A3019 RMK A01 T00041019  RH  086%=      5-min Rain = 0
KREE 150625Z 30012KT 00/M02 A3019 RMK A01 T00041019  RH  085%=      5-min Rain = 0
KREE 150630Z 30012KT 00/M02 A3019 RMK A01 T00041019  RH  085%=      5-min Rain = 0
KREE 150635Z 31011KT 00/M02 A3019 RMK A01 T00041020  RH  085%=      5-min Rain = 0
KREE 150640Z 31012KT 01/M02 A3019 RMK A01 T00051020  RH  084%=      5-min Rain = 0
KREE 150645Z 31011KT 01/M02 A3019 RMK A01 T00051020  RH  084%=      5-min Rain = 0
KREE 150650Z 31012KT 01/M02 A3019 RMK A01 T00051020  RH  084%=      5-min Rain = 0
KREE 150655Z 32012KT 01/M02 A3019 RMK A01 T00051020  RH  084%=      5-min Rain = 0
KREE 150700Z 32012KT 01/M02 A3019 RMK A01 T00061020  RH  083%=      5-min Rain = 0
KREE 150705Z 32012KT 01/M02 A3019 RMK A01 T00071020  RH  083%=      5-min Rain = 0
KREE 150710Z 32012KT 01/M02 A3019 RMK A01 T00071020  RH  083%=      5-min Rain = 0
KREE 150715Z 32011KT 01/M02 A3019 RMK A01 T00061020  RH  084%=      5-min Rain = 0
KREE 150720Z 32010KT 01/M02 A3019 RMK A01 T00051020  RH  084%=      5-min Rain = 0
KREE 150725Z 32011KT 01/M02 A3019 RMK A01 T00061020  RH  084%=      5-min Rain = 0
KREE 150730Z 32011KT 01/M02 A3019 RMK A01 T00061020  RH  083%=      5-min Rain = 0
KREE 150735Z 32010KT 01/M02 A3019 RMK A01 T00051020  RH  084%=      5-min Rain = 0
KREE 150740Z 32011KT 01/M02 A3019 RMK A01 T00051021  RH  084%=      5-min Rain = 0
KREE 150745Z 32011KT 01/M02 A302 RMK A01 T00061021  RH  084%=      5-min Rain = 0
KREE 150750Z 32010KT 01/M02 A302 RMK A01 T00051021  RH  084%=      5-min Rain = 0
KREE 150755Z 32010KT 01/M02 A302 RMK A01 T00051021  RH  084%=      5-min Rain = 0
KREE 150800Z 32010KT 00/M02 A302 RMK A01 T00041021  RH  084%=      5-min Rain = 0
KREE 150805Z 32009KT 00/M02 A302 RMK A01 T00031021  RH  085%=      5-min Rain = 0
KREE 150810Z 32009KT 00/M02 A302 RMK A01 T00021021  RH  085%=      5-min Rain = 0
KREE 150815Z 32009KT 00/M02 A302 RMK A01 T00021021  RH  085%=      5-min Rain = 0
KREE 150820Z 32008KT 00/M02 A302 RMK A01 T00021021  RH  086%=      5-min Rain = 0
KREE 150825Z 32009KT 00/M02 A302 RMK A01 T00011021  RH  086%=      5-min Rain = 0
KREE 150830Z 32008KT 00/M02 A302 RMK A01 T00011021  RH  086%=      5-min Rain = 0
KREE 150835Z 32008KT 00/02 A302 RMK A01 T00000-21  RH  086%=      5-min Rain = 0
KREE 150840Z 32009KT 00/02 A302 RMK A01 T00000-22  RH  086%=      5-min Rain = 0
KREE 150845Z 32008KT 00/02 A302 RMK A01 T00-00-22  RH  086%=      5-min Rain = 0
KREE 150850Z 32009KT 00/02 A302 RMK A01 T00-00-22  RH  086%=      5-min Rain = 0
KREE 150855Z 32009KT 00/02 A302 RMK A01 T00-00-22  RH  086%=      5-min Rain = 0
KREE 150900Z 32009KT M00/M02 A302 RMK A01 T10011022  RH  086%=      5-min Rain = 0
KREE 150905Z 32009KT M00/M02 A302 RMK A01 T10011022  RH  087%=      5-min Rain = 0
KREE 150910Z 32010KT M00/M02 A3019 RMK A01 T10011022  RH  087%=      5-min Rain = 0
KREE 150915Z 32009KT M00/M02 A3019 RMK A01 T10021022  RH  087%=      5-min Rain = 0
KREE 150920Z 32010KT M00/M02 A3019 RMK A01 T10021022  RH  088%=      5-min Rain = 0
KREE 150925Z 33010KT M00/M02 A3019 RMK A01 T10021021  RH  088%=      5-min Rain = 0
KREE 150930Z 33010KT M00/M02 A3019 RMK A01 T10021022  RH  088%=      5-min Rain = 0
KREE 150935Z 33010KT M00/M02 A3019 RMK A01 T10021022  RH  088%=      5-min Rain = 0
KREE 150940Z 33010KT M00/M02 A3019 RMK A01 T10021022  RH  087%=      5-min Rain = 0
KREE 150945Z 33010KT M00/M02 A3019 RMK A01 T10011022  RH  087%=      5-min Rain = 0
KREE 150950Z 33010KT 00/02 A3019 RMK A01 T00000-23  RH  086%=      5-min Rain = 0
KREE 150955Z 33009KT 00/02 A3019 RMK A01 T00-00-23  RH  086%=      5-min Rain = 0
KREE 151000Z 32009KT M00/M02 A3019 RMK A01 T10011023  RH  086%=      5-min Rain = 0
KREE 151005Z 32008KT M00/M02 A3019 RMK A01 T10011023  RH  086%=      5-min Rain = 0
KREE 151010Z 32008KT M00/M02 A3019 RMK A01 T10021024  RH  086%=      5-min Rain = 0
KREE 151015Z 31007KT M00/M02 A3019 RMK A01 T10031024  RH  086%=      5-min Rain = 0
KREE 151020Z 30007KT M00/M02 A3019 RMK A01 T10031024  RH  086%=      5-min Rain = 0
KREE 151025Z 29007KT M01/M03 A3019 RMK A01 T10061025  RH  088%=      5-min Rain = 0
KREE 151030Z 29007KT M01/M03 A3019 RMK A01 T10081025  RH  089%=      5-min Rain = 0
KREE 151035Z 29008KT M01/M02 A3019 RMK A01 T10081024  RH  090%=      5-min Rain = 0
KREE 151040Z 29007KT M01/M03 A3019 RMK A01 T10101025  RH  091%=      5-min Rain = 0
KREE 151045Z 30008KT M01/M03 A3019 RMK A01 T10111025  RH  091%=      5-min Rain = 0
KREE 151050Z 30008KT M01/M03 A3019 RMK A01 T10111025  RH  091%=      5-min Rain = 0
KREE 151055Z 30007KT M01/M03 A302 RMK A01 T10111026  RH  091%=      5-min Rain = 0
KREE 151100Z 30007KT M01/M03 A302 RMK A01 T10111026  RH  091%=      5-min Rain = 0
KREE 151105Z 30007KT M01/M03 A302 RMK A01 T10111026  RH  091%=      5-min Rain = 0
KREE 151110Z 30007KT M01/M03 A302 RMK A01 T10121026  RH  091%=      5-min Rain = 0
KREE 151115Z 29008KT M01/M03 A302 RMK A01 T10111025  RH  091%=      5-min Rain = 0
KREE 151120Z 29008KT M01/M03 A302 RMK A01 T10121026  RH  091%=      5-min Rain = 0
KREE 151125Z 30008KT M01/M03 A302 RMK A01 T10131026  RH  092%=      5-min Rain = 0
KREE 151130Z 30008KT M01/M03 A302 RMK A01 T10141026  RH  092%=      5-min Rain = 0
KREE 151135Z 30008KT M01/M03 A302 RMK A01 T10141027  RH  092%=      5-min Rain = 0
KREE 151140Z 30009KT M02/M03 A302 RMK A01 T10151028  RH  092%=      5-min Rain = 0
KREE 151145Z 30009KT M02/M03 A302 RMK A01 T10151027  RH  092%=      5-min Rain = 0
KREE 151150Z 30009KT M01/M03 A302 RMK A01 T10141027  RH  092%=      5-min Rain = 0
KREE 151155Z 30009KT M01/M03 A302 RMK A01 T10131027  RH  091%=      5-min Rain = 0
KREE 151200Z 30009KT M01/M03 A302 RMK A01 T10131027  RH  091%=      5-min Rain = 0
KREE 151205Z 30009KT M01/M03 A302 RMK A01 T10121028  RH  090%=      5-min Rain = 0
KREE 151210Z 31009KT M01/M03 A3021 RMK A01 T10111028  RH  089%=      5-min Rain = 0
KREE 151215Z 31009KT M01/M03 A3021 RMK A01 T10111029  RH  088%=      5-min Rain = 0
KREE 151220Z 31008KT M01/M03 A3021 RMK A01 T10111029  RH  088%=      5-min Rain = 0
KREE 151225Z 31008KT M01/M03 A3021 RMK A01 T10111030  RH  088%=      5-min Rain = 0
KREE 151230Z 31009KT M01/M03 A3021 RMK A01 T10111030  RH  088%=      5-min Rain = 0
KREE 151235Z 31009KT M01/M03 A3021 RMK A01 T10101030  RH  088%=      5-min Rain = 0
KREE 151240Z 30009KT M01/M03 A3021 RMK A01 T10111031  RH  088%=      5-min Rain = 0
KREE 151245Z 31008KT M01/M03 A3021 RMK A01 T10141031  RH  089%=      5-min Rain = 0
KREE 151250Z 30009KT M02/M03 A3021 RMK A01 T10151031  RH  090%=      5-min Rain = 0
KREE 151255Z 31009KT M01/M03 A3021 RMK A01 T10141031  RH  089%=      5-min Rain = 0
KREE 151300Z 31009KT M01/M03 A3022 RMK A01 T10131031  RH  088%=      5-min Rain = 0
KREE 151305Z 31008KT M01/M03 A3022 RMK A01 T10131032  RH  088%=      5-min Rain = 0
KREE 151310Z 31009KT M02/M03 A3022 RMK A01 T10151032  RH  089%=      5-min Rain = 0
KREE 151315Z 31009KT M02/M03 A3022 RMK A01 T10151032  RH  089%=      5-min Rain = 0
KREE 151320Z 31009KT M01/M03 A3022 RMK A01 T10141032  RH  089%=      5-min Rain = 0
KREE 151325Z 32010KT M01/M03 A3022 RMK A01 T10131032  RH  088%=      5-min Rain = 0
KREE 151330Z 32009KT M01/M03 A3023 RMK A01 T10121032  RH  088%=      5-min Rain = 0
KREE 151335Z 32010KT M01/M03 A3023 RMK A01 T10121031  RH  088%=      5-min Rain = 0
KREE 151340Z 32010KT M01/M03 A3023 RMK A01 T10091031  RH  086%=      5-min Rain = 0
KREE 151345Z 32010KT M01/M03 A3023 RMK A01 T10071031  RH  085%=      5-min Rain = 0
KREE 151350Z 31010KT M01/M03 A3023 RMK A01 T10081031  RH  085%=      5-min Rain = 0
KREE 151355Z 32009KT M01/M03 A3023 RMK A01 T10091031  RH  086%=      5-min Rain = 0
KREE 151400Z 32010KT M01/M03 A3024 RMK A01 T10071031  RH  085%=      5-min Rain = 0
KREE 151405Z 32010KT M01/M03 A3024 RMK A01 T10051030  RH  084%=      5-min Rain = 0
KREE 151410Z 32010KT M00/M03 A3024 RMK A01 T10041030  RH  084%=      5-min Rain = 0
KREE 151415Z 33009KT M00/M03 A3024 RMK A01 T10021029  RH  083%=      5-min Rain = 0
KREE 151420Z 33009KT M00/M03 A3024 RMK A01 T10011028  RH  083%=      5-min Rain = 0
KREE 151425Z 33010KT 00/M03 A3025 RMK A01 T00011028  RH  082%=      5-min Rain = 0
KREE 151430Z 33010KT 00/M03 A3025 RMK A01 T00041027  RH  081%=      5-min Rain = 0
KREE 151435Z 33010KT 01/M03 A3025 RMK A01 T00071026  RH  079%=      5-min Rain = 0
KREE 151440Z 33010KT 01/M03 A3025 RMK A01 T00101026  RH  078%=      5-min Rain = 0
KREE 151445Z 33010KT 01/M03 A3026 RMK A01 T00121027  RH  076%=      5-min Rain = 0
KREE 151450Z 33010KT 01/M03 A3026 RMK A01 T00131026  RH  076%=      5-min Rain = 0
KREE 151455Z 34010KT 01/M03 A3026 RMK A01 T00141027  RH  075%=      5-min Rain = 0
KREE 151500Z 34010KT 02/M03 A3026 RMK A01 T00151025  RH  076%=      5-min Rain = 0
KREE 151505Z 34010KT 02/M03 A3026 RMK A01 T00161025  RH  075%=      5-min Rain = 0
KREE 151510Z 34011KT 02/M03 A3027 RMK A01 T00171025  RH  074%=      5-min Rain = 0
KREE 151515Z 34011KT 02/M03 A3027 RMK A01 T00191025  RH  074%=      5-min Rain = 0
KREE 151520Z 34010KT 02/M02 A3027 RMK A01 T00201023  RH  074%=      5-min Rain = 0
KREE 151525Z 34010KT 02/M02 A3027 RMK A01 T00221022  RH  073%=      5-min Rain = 0
KREE 151530Z 34010KT 03/M02 A3027 RMK A01 T00251020  RH  073%=      5-min Rain = 0
KREE 151535Z 34010KT 03/M02 A3028 RMK A01 T00251021  RH  073%=      5-min Rain = 0
KREE 151540Z 34010KT 03/M02 A3028 RMK A01 T00281018  RH  072%=      5-min Rain = 0
KREE 151545Z 34010KT 03/M02 A3028 RMK A01 T00311017  RH  072%=      5-min Rain = 0
KREE 151550Z 35010KT 04/M02 A3028 RMK A01 T00361015  RH  070%=      5-min Rain = 0
KREE 151555Z 34010KT 04/M02 A3027 RMK A01 T00401015  RH  068%=      5-min Rain = 0
KREE 151600Z 34010KT 04/M02 A3027 RMK A01 T00421015  RH  067%=      5-min Rain = 0
KREE 151605Z 34010KT 04/M01 A3027 RMK A01 T00441014  RH  067%=      5-min Rain = 0
KREE 151610Z 35009G14KT 05/M01 A3027 RMK A01 T00481012  RH  066%=      5-min Rain = 0
KREE 151615Z 36009KT 05/M01 A3027 RMK A01 T00521014  RH  063%=      5-min Rain = 0
KREE 151620Z 36010KT 05/M02 A3027 RMK A01 T00541016  RH  061%=      5-min Rain = 0
KREE 151625Z 00010KT 06/M01 A3027 RMK A01 T00561014  RH  061%=      5-min Rain = 0
KREE 151630Z 35009KT 06/M02 A3027 RMK A01 T00571016  RH  060%=      5-min Rain = 0
KREE 151635Z 35008KT 06/M02 A3027 RMK A01 T00581016  RH  060%=      5-min Rain = 0
KREE 151640Z 35008KT 06/M01 A3027 RMK A01 T00611013  RH  060%=      5-min Rain = 0
KREE 151645Z 35008KT 06/M01 A3027 RMK A01 T00641013  RH  059%=      5-min Rain = 0
KREE 151650Z 35008KT 07/M01 A3027 RMK A01 T00661013  RH  058%=      5-min Rain = 0
KREE 151655Z 35007KT 07/M01 A3027 RMK A01 T00661013  RH  058%=      5-min Rain = 0
KREE 151700Z 35007KT 07/M01 A3028 RMK A01 T00711010  RH  057%=      5-min Rain = 0
KREE 151705Z 35007KT 07/M01 A3027 RMK A01 T00711013  RH  056%=      5-min Rain = 0
KREE 151710Z 35007KT 07/M01 A3027 RMK A01 T00721013  RH  055%=      5-min Rain = 0
KREE 151715Z 35007KT 08/M01 A3027 RMK A01 T00771010  RH  055%=      5-min Rain = 0
KREE 151720Z 01007KT 08/M01 A3027 RMK A01 T00791014  RH  053%=      5-min Rain = 0
KREE 151725Z 35007KT 08/M02 A3027 RMK A01 T00801015  RH  052%=      5-min Rain = 0
KREE 151730Z 34008KT 08/M02 A3027 RMK A01 T00801021  RH  049%=      5-min Rain = 0
KREE 151735Z 34008KT 08/M02 A3027 RMK A01 T00821023  RH  048%=      5-min Rain = 0
KREE 151740Z 35007KT 09/M02 A3027 RMK A01 T00861017  RH  049%=      5-min Rain = 0
KREE 151745Z 34008KT 09/M02 A3027 RMK A01 T00861022  RH  047%=      5-min Rain = 0
KREE 151750Z 35009KT 09/M02 A3027 RMK A01 T00871023  RH  047%=      5-min Rain = 0
KREE 151755Z 35008KT 09/M03 A3027 RMK A01 T00861030  RH  044%=      5-min Rain = 0
KREE 151800Z 01007KT 09/M02 A3027 RMK A01 T00901021  RH  046%=      5-min Rain = 0
KREE 151805Z 34007KT 09/M03 A3026 RMK A01 T00891028  RH  044%=      5-min Rain = 0
KREE 151810Z 34008KT 09/M02 A3026 RMK A01 T00911022  RH  046%=      5-min Rain = 0
KREE 151815Z 34008KT 09/M02 A3026 RMK A01 T00931021  RH  045%=      5-min Rain = 0
KREE 151820Z 34009KT 09/M03 A3026 RMK A01 T00931025  RH  044%=      5-min Rain = 0
KREE 151825Z 36006KT 10/M02 A3025 RMK A01 T00951023  RH  044%=      5-min Rain = 0
KREE 151830Z 34009KT 10/M03 A3025 RMK A01 T00951026  RH  043%=      5-min Rain = 0
KREE 151835Z 01006KT 10/M03 A3025 RMK A01 T00951031  RH  042%=      5-min Rain = 0
KREE 151840Z 34007KT 10/M03 A3025 RMK A01 T00981027  RH  042%=      5-min Rain = 0
KREE 151845Z 35008KT 10/M03 A3024 RMK A01 T01011030  RH  040%=      5-min Rain = 0
KREE 151850Z 00007KT 10/M03 A3024 RMK A01 T00991032  RH  040%=      5-min Rain = 0
KREE 151855Z 35007KT 10/M03 A3024 RMK A01 T00991030  RH  041%=      5-min Rain = 0
KREE 151900Z 01007G12KT 11/M02 A3024 RMK A01 T01051023  RH  041%=      5-min Rain = 0
KREE 151905Z 32007KT 10/M02 A3023 RMK A01 T01031022  RH  042%=      5-min Rain = 0
KREE 151910Z 34005G11KT 10/M03 A3023 RMK A01 T01021031  RH  039%=      5-min Rain = 0
KREE 151915Z 02005KT 10/M03 A3023 RMK A01 T01041027  RH  040%=      5-min Rain = 0
KREE 151920Z 34008KT 11/M03 A3023 RMK A01 T01091027  RH  039%=      5-min Rain = 0
KREE 151925Z 32010KT 11/M04 A3022 RMK A01 T01081037  RH  036%=      5-min Rain = 0
KREE 151930Z 34009KT 11/M04 A3022 RMK A01 T01071035  RH  037%=      5-min Rain = 0
KREE 151935Z 33007G12KT 11/M04 A3021 RMK A01 T01081038  RH  036%=      5-min Rain = 0
KREE 151940Z 33009KT 11/M04 A3021 RMK A01 T01091040  RH  035%=      5-min Rain = 0
KREE 151945Z 34007G13KT 11/M04 A3021 RMK A01 T01101035  RH  036%=      5-min Rain = 0
KREE 151950Z 32008KT 11/M04 A3021 RMK A01 T01091037  RH  036%=      5-min Rain = 0
KREE 151955Z 32006G11KT 11/M04 A302 RMK A01 T01091035  RH  037%=      5-min Rain = 0
KREE 152000Z 32010KT 11/M03 A302 RMK A01 T01121034  RH  036%=      5-min Rain = 0
KREE 152005Z 32008KT 11/M04 A302 RMK A01 T01111039  RH  035%=      5-min Rain = 0
KREE 152010Z 34008G13KT 11/M04 A3019 RMK A01 T01091043  RH  035%=      5-min Rain = 0
KREE 152015Z 34008G15KT 11/M04 A3019 RMK A01 T01131038  RH  035%=      5-min Rain = 0
KREE 152020Z 35007KT 11/M04 A3019 RMK A01 T01141043  RH  033%=      5-min Rain = 0
KREE 152025Z 34007G14KT 12/M04 A3019 RMK A01 T01151041  RH  034%=      5-min Rain = 0
KREE 152030Z 35008G13KT 12/M05 A3018 RMK A01 T01161047  RH  032%=      5-min Rain = 0
KREE 152035Z 01008KT 12/M05 A3018 RMK A01 T01161048  RH  032%=      5-min Rain = 0
KREE 152040Z 00006G11KT 12/M05 A3018 RMK A01 T01181045  RH  032%=      5-min Rain = 0
KREE 152045Z 36007KT 12/M04 A3018 RMK A01 T01201042  RH  032%=      5-min Rain = 0
KREE 152050Z 34007KT 12/M05 A3017 RMK A01 T01191048  RH  031%=      5-min Rain = 0
KREE 152055Z 33008G13KT 12/M04 A3017 RMK A01 T01181042  RH  033%=      5-min Rain = 0
KREE 152100Z 35009KT 12/M04 A3017 RMK A01 T01201036  RH  034%=      5-min Rain = 0
KREE 152105Z 01006KT 12/M04 A3017 RMK A01 T01191039  RH  033%=      5-min Rain = 0
KREE 152110Z 35005G10KT 12/M04 A3017 RMK A01 T01191040  RH  033%=      5-min Rain = 0
KREE 152115Z 35007G12KT 12/M04 A3017 RMK A01 T01221037  RH  033%=      5-min Rain = 0
KREE 152120Z 36005KT 12/M05 A3017 RMK A01 T01211048  RH  031%=      5-min Rain = 0
KREE 152125Z 35005KT 12/M04 A3016 RMK A01 T01231040  RH  032%=      5-min Rain = 0
KREE 152130Z 31003KT 12/M05 A3016 RMK A01 T01211045  RH  031%=      5-min Rain = 0
KREE 152135Z 32008KT 12/M04 A3016 RMK A01 T01231040  RH  032%=      5-min Rain = 0
KREE 152140Z 30006KT 12/M04 A3016 RMK A01 T01211042  RH  032%=      5-min Rain = 0
KREE 152145Z 33003G8KT 12/M04 A3016 RMK A01 T01211043  RH  032%=      5-min Rain = 0
KREE 152150Z 34006KT 12/M04 A3016 RMK A01 T01221038  RH  033%=      5-min Rain = 0
KREE 152155Z 29007KT 12/M04 A3015 RMK A01 T01231043  RH  032%=      5-min Rain = 0
KREE 152200Z 33008KT 12/M05 A3015 RMK A01 T01221047  RH  031%=      5-min Rain = 0
KREE 152205Z 32005KT 12/M05 A3015 RMK A01 T01221048  RH  031%=      5-min Rain = 0
KREE 152210Z 32006KT 12/M05 A3015 RMK A01 T01231046  RH  031%=      5-min Rain = 0
KREE 152215Z 35005KT 12/M05 A3015 RMK A01 T01241047  RH  030%=      5-min Rain = 0
KREE 152220Z 01004KT 12/M05 A3015 RMK A01 T01231050  RH  030%=      5-min Rain = 0
KREE 152225Z 31006KT 12/M05 A3015 RMK A01 T01241051  RH  030%=      5-min Rain = 0
KREE 152230Z 31005KT 12/M04 A3015 RMK A01 T01241044  RH  031%=      5-min Rain = 0
KREE 152235Z 34003KT 13/M05 A3015 RMK A01 T01271048  RH  029%=      5-min Rain = 0
KREE 152240Z 32005KT 13/M05 A3015 RMK A01 T01271051  RH  029%=      5-min Rain = 0
KREE 152245Z 29005G10KT 13/M05 A3015 RMK A01 T01261051  RH  029%=      5-min Rain = 0
KREE 152250Z 32006KT 13/M05 A3014 RMK A01 T01251051  RH  029%=      5-min Rain = 0
KREE 152255Z 29004KT 12/M05 A3014 RMK A01 T01241053  RH  029%=      5-min Rain = 0
KREE 152300Z 27005KT 13/M05 A3014 RMK A01 T01251048  RH  030%=      5-min Rain = 0
KREE 152305Z 32004KT 13/M05 A3014 RMK A01 T01251051  RH  029%=      5-min Rain = 0
KREE 152310Z 29003KT 13/M05 A3014 RMK A01 T01271052  RH  029%=      5-min Rain = 0
KREE 152315Z 29002KT 13/M05 A3014 RMK A01 T01271050  RH  029%=      5-min Rain = 0
KREE 152320Z 30005KT 13/M05 A3014 RMK A01 T01291046  RH  030%=      5-min Rain = 0
KREE 152325Z 31004KT 13/M05 A3014 RMK A01 T01271048  RH  030%=      5-min Rain = 0
KREE 152330Z 31005KT 13/M05 A3014 RMK A01 T01261047  RH  030%=      5-min Rain = 0
KREE 152335Z 32005KT 12/M05 A3014 RMK A01 T01241052  RH  029%=      5-min Rain = 0
KREE 152340Z 33004KT 12/M05 A3013 RMK A01 T01231049  RH  030%=      5-min Rain = 0
KREE 152345Z 33004KT 12/M05 A3013 RMK A01 T01231049  RH  030%=      5-min Rain = 0
KREE 152350Z 29003KT 12/M05 A3013 RMK A01 T01241046  RH  030%=      5-min Rain = 0
KREE 152355Z 24003KT 12/M05 A3013 RMK A01 T01241049  RH  030%=      5-min Rain = 0
KREE 160000Z 26003KT 12/M04 A3013 RMK A01 T01221042  RH  032%=      5-min Rain = 0
KREE 160005Z 29000KT 12/M04 A3013 RMK A01 T01241044  RH  031%=      5-min Rain = 0
KREE 160010Z 24001KT 13/M04 A3013 RMK A01 T01271044  RH  030%=      5-min Rain = 0
KREE 160015Z 22002KT 12/M04 A3013 RMK A01 T01221044  RH  032%=      5-min Rain = 0
KREE 160020Z 20002KT 12/M04 A3013 RMK A01 T01191036  RH  034%=      5-min Rain = 0
KREE 160025Z 19003KT 12/M04 A3013 RMK A01 T01151035  RH  035%=      5-min Rain = 0
KREE 160030Z 21003KT 11/M03 A3013 RMK A01 T01091033  RH  037%=      5-min Rain = 0
KREE 160035Z 20004KT 10/M03 A3013 RMK A01 T01031030  RH  040%=      5-min Rain = 0
KREE 160040Z 20005KT 10/M02 A3013 RMK A01 T00961019  RH  045%=      5-min Rain = 0
KREE 160045Z 19004KT 09/M02 A3013 RMK A01 T00921020  RH  046%=      5-min Rain = 0
KREE 160050Z 18004KT 09/M02 A3013 RMK A01 T00901015  RH  048%=      5-min Rain = 0
KREE 160055Z 19004KT 09/M02 A3013 RMK A01 T00871020  RH  047%=      5-min Rain = 0
KREE 160100Z 18003KT 09/M02 A3013 RMK A01 T00851017  RH  049%=      5-min Rain = 0
KREE 160105Z 18004KT 08/M01 A3012 RMK A01 T00811014  RH  052%=      5-min Rain = 0
KREE 160110Z 18004KT 08/M01 A3013 RMK A01 T00801012  RH  053%=      5-min Rain = 0
KREE 160115Z 18004KT 08/M01 A3013 RMK A01 T00791011  RH  053%=      5-min Rain = 0
KREE 160120Z 18004KT 08/M01 A3013 RMK A01 T00761010  RH  055%=      5-min Rain = 0
KREE 160125Z 18004KT 07/M01 A3013 RMK A01 T00721007  RH  058%=      5-min Rain = 0
KREE 160130Z 19004KT 07/M01 A3013 RMK A01 T00691006  RH  060%=      5-min Rain = 0
KREE 160135Z 19004KT 07/M01 A3013 RMK A01 T00681006  RH  060%=      5-min Rain = 0
KREE 160140Z 19004KT 07/M01 A3013 RMK A01 T00681007  RH  060%=      5-min Rain = 0
KREE 160145Z 19004KT 07/M01 A3013 RMK A01 T00661006  RH  061%=      5-min Rain = 0
KREE 160150Z 18004KT 06/M00 A3013 RMK A01 T00631004  RH  063%=      5-min Rain = 0
KREE 160155Z 19005KT 06/M00 A3013 RMK A01 T00601003  RH  065%=      5-min Rain = 0
KREE 160200Z 18004KT 06/M00 A3013 RMK A01 T00591004  RH  065%=      5-min Rain = 0
KREE 160205Z 18004KT 06/M01 A3013 RMK A01 T00571005  RH  065%=      5-min Rain = 0
KREE 160210Z 18005KT 06/M01 A3013 RMK A01 T00561005  RH  066%=      5-min Rain = 0
KREE 160215Z 18005KT 06/M01 A3013 RMK A01 T00571006  RH  065%=      5-min Rain = 0
KREE 160220Z 18005KT 06/M00 A3013 RMK A01 T00561004  RH  066%=      5-min Rain = 0
KREE 160225Z 18005KT 05/M00 A3013 RMK A01 T00531003  RH  068%=      5-min Rain = 0
KREE 160230Z 18005KT 05/M01 A3013 RMK A01 T00521005  RH  068%=      5-min Rain = 0
KREE 160235Z 19005KT 05/M00 A3013 RMK A01 T00521004  RH  068%=      5-min Rain = 0
KREE 160240Z 18005KT 05/M01 A3013 RMK A01 T00501005  RH  068%=      5-min Rain = 0
KREE 160245Z 18005KT 05/M01 A3013 RMK A01 T00521006  RH  067%=      5-min Rain = 0
KREE 160250Z 18005KT 05/M01 A3013 RMK A01 T00511005  RH  068%=      5-min Rain = 0
KREE 160255Z 18005KT 05/M01 A3013 RMK A01 T00501005  RH  068%=      5-min Rain = 0
KREE 160300Z 18006KT 05/M01 A3013 RMK A01 T00501007  RH  068%=      5-min Rain = 0
KREE 160305Z 18005KT 05/M01 A3013 RMK A01 T00481007  RH  068%=      5-min Rain = 0
KREE 160310Z 19005KT 05/M01 A3013 RMK A01 T00471008  RH  068%=      5-min Rain = 0
KREE 160315Z 19006KT 04/M01 A3013 RMK A01 T00441007  RH  071%=      5-min Rain = 0
KREE 160320Z 19006KT 04/M01 A3014 RMK A01 T00391007  RH  073%=      5-min Rain = 0
KREE 160325Z 18006KT 04/M01 A3014 RMK A01 T00361007  RH  074%=      5-min Rain = 0
KREE 160330Z 19007KT 04/M01 A3014 RMK A01 T00361007  RH  075%=      5-min Rain = 0
KREE 160335Z 18006KT 03/M01 A3014 RMK A01 T00341007  RH  075%=      5-min Rain = 0
KREE 160340Z 18006KT 03/M01 A3014 RMK A01 T00331008  RH  075%=      5-min Rain = 0
KREE 160345Z 19006KT 03/M01 A3014 RMK A01 T00331008  RH  075%=      5-min Rain = 0
KREE 160350Z 19006KT 03/M01 A3014 RMK A01 T00331007  RH  076%=      5-min Rain = 0
KREE 160355Z 19006KT 03/M01 A3014 RMK A01 T00321008  RH  076%=      5-min Rain = 0
KREE 160400Z 19006KT 03/M01 A3014 RMK A01 T00311008  RH  076%=      5-min Rain = 0
KREE 160405Z 19007KT 03/M01 A3014 RMK A01 T00291009  RH  077%=      5-min Rain = 0
KREE 160410Z 19007KT 03/M01 A3014 RMK A01 T00301009  RH  077%=      5-min Rain = 0
KREE 160415Z 18007KT 03/M01 A3014 RMK A01 T00291008  RH  078%=      5-min Rain = 0
KREE 160420Z 18008KT 03/M01 A3014 RMK A01 T00261008  RH  079%=      5-min Rain = 0
KREE 160425Z 18006KT 03/M01 A3014 RMK A01 T00281008  RH  078%=      5-min Rain = 0
KREE 160430Z 19006KT 03/M01 A3014 RMK A01 T00261009  RH  079%=      5-min Rain = 0
KREE 160435Z 19007KT 03/M01 A3014 RMK A01 T00271009  RH  078%=      5-min Rain = 0
KREE 160440Z 19007KT 03/M01 A3014 RMK A01 T00251009  RH  079%=      5-min Rain = 0
KREE 160445Z 20006KT 02/M01 A3014 RMK A01 T00221011  RH  080%=      5-min Rain = 0
KREE 160450Z 20006KT 02/M01 A3014 RMK A01 T00191011  RH  082%=      5-min Rain = 0
KREE 160455Z 20006KT 02/M01 A3014 RMK A01 T00181010  RH  082%=      5-min Rain = 0
KREE 160500Z 20006KT 02/M01 A3014 RMK A01 T00161012  RH  083%=      5-min Rain = 0
KREE 160505Z 21007KT 01/M01 A3014 RMK A01 T00131014  RH  083%=      5-min Rain = 0
KREE 160510Z 21008KT 01/M01 A3014 RMK A01 T00111014  RH  084%=      5-min Rain = 0
KREE 160515Z 21008KT 01/M02 A3013 RMK A01 T00101015  RH  085%=      5-min Rain = 0
KREE 160520Z 21007KT 01/M02 A3013 RMK A01 T00081015  RH  086%=      5-min Rain = 0
KREE 160525Z 21008KT 01/M01 A3013 RMK A01 T00081013  RH  086%=      5-min Rain = 0
KREE 160530Z 21007KT 01/M02 A3013 RMK A01 T00081015  RH  086%=      5-min Rain = 0
KREE 160535Z 21007KT 01/M01 A3013 RMK A01 T00071014  RH  086%=      5-min Rain = 0
KREE 160540Z 20006KT 01/M01 A3013 RMK A01 T00071014  RH  087%=      5-min Rain = 0
KREE 160545Z 21007KT 01/M01 A3013 RMK A01 T00071013  RH  087%=      5-min Rain = 0
KREE 160550Z 21007KT 01/M02 A3012 RMK A01 T00051015  RH  088%=      5-min Rain = 0
KREE 160555Z 21007KT 00/M02 A3012 RMK A01 T00041015  RH  088%=      5-min Rain = 0

Page generated in 0.0188 seconds.